sensor_id;sensor_type;location;lat;lon;timestamp;temperature;humidity
64062;DHT22;50308;47.438;-1.528;2022-08-01T00:01:16;25.50;54.20
64062;DHT22;50308;47.438;-1.528;2022-08-01T00:03:41;25.50;54.20
64062;DHT22;50308;47.438;-1.528;2022-08-01T00:06:07;25.50;54.30
64062;DHT22;50308;47.438;-1.528;2022-08-01T00:08:33;25.50;54.20
64062;DHT22;50308;47.438;-1.528;2022-08-01T00:10:58;25.50;54.20
64062;DHT22;50308;47.438;-1.528;2022-08-01T00:13:24;25.50;54.20
64062;DHT22;50308;47.438;-1.528;2022-08-01T00:15:50;25.50;54.20
64062;DHT22;50308;47.438;-1.528;2022-08-01T00:18:15;25.50;54.30
64062;DHT22;50308;47.438;-1.528;2022-08-01T00:20:41;25.50;54.30
64062;DHT22;50308;47.438;-1.528;2022-08-01T00:23:07;25.50;54.30
64062;DHT22;50308;47.438;-1.528;2022-08-01T00:25:32;25.50;54.40
64062;DHT22;50308;47.438;-1.528;2022-08-01T00:27:58;25.50;54.40
64062;DHT22;50308;47.438;-1.528;2022-08-01T00:30:24;25.50;54.50
64062;DHT22;50308;47.438;-1.528;2022-08-01T00:32:49;25.50;54.70
64062;DHT22;50308;47.438;-1.528;2022-08-01T00:35:15;25.50;54.80
64062;DHT22;50308;47.438;-1.528;2022-08-01T00:37:41;25.50;54.80
64062;DHT22;50308;47.438;-1.528;2022-08-01T00:40:07;25.50;54.90
64062;DHT22;50308;47.438;-1.528;2022-08-01T00:42:33;25.50;54.90
64062;DHT22;50308;47.438;-1.528;2022-08-01T00:44:59;25.50;55.00
64062;DHT22;50308;47.438;-1.528;2022-08-01T00:47:24;25.50;55.10
64062;DHT22;50308;47.438;-1.528;2022-08-01T00:49:50;25.50;55.10
64062;DHT22;50308;47.438;-1.528;2022-08-01T00:52:16;25.50;55.20
64062;DHT22;50308;47.438;-1.528;2022-08-01T00:54:42;25.40;55.00
64062;DHT22;50308;47.438;-1.528;2022-08-01T00:57:09;25.40;55.00
64062;DHT22;50308;47.438;-1.528;2022-08-01T00:59:36;25.40;55.20
64062;DHT22;50308;47.438;-1.528;2022-08-01T01:02:02;25.40;55.10
64062;DHT22;50308;47.438;-1.528;2022-08-01T01:04:28;25.40;55.10
64062;DHT22;50308;47.438;-1.528;2022-08-01T01:09:50;25.40;55.10
64062;DHT22;50308;47.438;-1.528;2022-08-01T01:12:37;25.40;55.10
64062;DHT22;50308;47.438;-1.528;2022-08-01T01:15:17;25.40;55.10
64062;DHT22;50308;47.438;-1.528;2022-08-01T01:17:52;25.40;55.20
64062;DHT22;50308;47.438;-1.528;2022-08-01T01:20:23;25.40;55.20
64062;DHT22;50308;47.438;-1.528;2022-08-01T01:30:53;25.40;55.40
64062;DHT22;50308;47.438;-1.528;2022-08-01T01:33:22;25.40;55.50
64062;DHT22;50308;47.438;-1.528;2022-08-01T01:35:52;25.40;55.50
64062;DHT22;50308;47.438;-1.528;2022-08-01T01:38:25;25.40;55.50
64062;DHT22;50308;47.438;-1.528;2022-08-01T01:40:53;25.40;55.60
64062;DHT22;50308;47.438;-1.528;2022-08-01T01:43:20;25.40;55.70
64062;DHT22;50308;47.438;-1.528;2022-08-01T01:45:48;25.40;55.70
64062;DHT22;50308;47.438;-1.528;2022-08-01T01:48:18;25.40;55.90
64062;DHT22;50308;47.438;-1.528;2022-08-01T01:50:46;25.40;55.90
64062;DHT22;50308;47.438;-1.528;2022-08-01T01:53:13;25.40;56.00
64062;DHT22;50308;47.438;-1.528;2022-08-01T01:55:40;25.40;56.10
64062;DHT22;50308;47.438;-1.528;2022-08-01T01:58:07;25.40;56.20
64062;DHT22;50308;47.438;-1.528;2022-08-01T02:00:35;25.40;56.20
64062;DHT22;50308;47.438;-1.528;2022-08-01T02:03:05;25.40;56.20
64062;DHT22;50308;47.438;-1.528;2022-08-01T02:05:32;25.40;56.20
64062;DHT22;50308;47.438;-1.528;2022-08-01T02:08:01;25.40;56.30
64062;DHT22;50308;47.438;-1.528;2022-08-01T02:10:29;25.40;56.30
64062;DHT22;50308;47.438;-1.528;2022-08-01T02:12:57;25.50;56.30
64062;DHT22;50308;47.438;-1.528;2022-08-01T02:15:26;25.40;56.50
64062;DHT22;50308;47.438;-1.528;2022-08-01T02:17:54;25.40;56.50
64062;DHT22;50308;47.438;-1.528;2022-08-01T02:20:20;25.40;56.50
64062;DHT22;50308;47.438;-1.528;2022-08-01T02:23:08;25.50;56.80
64062;DHT22;50308;47.438;-1.528;2022-08-01T02:25:43;25.50;56.80
64062;DHT22;50308;47.438;-1.528;2022-08-01T02:28:21;25.40;56.80
64062;DHT22;50308;47.438;-1.528;2022-08-01T02:30:56;25.40;56.80
64062;DHT22;50308;47.438;-1.528;2022-08-01T02:33:33;25.40;56.90
64062;DHT22;50308;47.438;-1.528;2022-08-01T02:36:01;25.40;57.00
64062;DHT22;50308;47.438;-1.528;2022-08-01T02:38:31;25.40;57.00
64062;DHT22;50308;47.438;-1.528;2022-08-01T02:41:01;25.40;57.00
64062;DHT22;50308;47.438;-1.528;2022-08-01T02:43:30;25.50;57.10
64062;DHT22;50308;47.438;-1.528;2022-08-01T02:46:00;25.50;57.20
64062;DHT22;50308;47.438;-1.528;2022-08-01T02:48:27;25.50;57.10
64062;DHT22;50308;47.438;-1.528;2022-08-01T02:50:56;25.40;57.10
64062;DHT22;50308;47.438;-1.528;2022-08-01T02:53:24;25.40;57.10
64062;DHT22;50308;47.438;-1.528;2022-08-01T02:55:52;25.40;57.10
64062;DHT22;50308;47.438;-1.528;2022-08-01T02:58:19;25.40;57.20
64062;DHT22;50308;47.438;-1.528;2022-08-01T03:00:47;25.40;57.30
64062;DHT22;50308;47.438;-1.528;2022-08-01T03:03:14;25.50;57.40
64062;DHT22;50308;47.438;-1.528;2022-08-01T03:05:41;25.50;57.40
64062;DHT22;50308;47.438;-1.528;2022-08-01T03:08:08;25.50;57.40
64062;DHT22;50308;47.438;-1.528;2022-08-01T03:10:37;25.40;57.30
64062;DHT22;50308;47.438;-1.528;2022-08-01T03:13:05;25.50;57.40
64062;DHT22;50308;47.438;-1.528;2022-08-01T03:15:33;25.50;57.40
64062;DHT22;50308;47.438;-1.528;2022-08-01T03:18:01;25.50;57.50
64062;DHT22;50308;47.438;-1.528;2022-08-01T03:20:30;25.50;57.40
64062;DHT22;50308;47.438;-1.528;2022-08-01T03:23:00;25.50;57.50
64062;DHT22;50308;47.438;-1.528;2022-08-01T03:25:27;25.50;57.50
64062;DHT22;50308;47.438;-1.528;2022-08-01T03:27:56;25.50;57.50
64062;DHT22;50308;47.438;-1.528;2022-08-01T03:30:25;25.50;57.60
64062;DHT22;50308;47.438;-1.528;2022-08-01T03:32:51;25.40;57.50
64062;DHT22;50308;47.438;-1.528;2022-08-01T03:35:17;25.50;57.60
64062;DHT22;50308;47.438;-1.528;2022-08-01T03:37:49;25.50;57.60
64062;DHT22;50308;47.438;-1.528;2022-08-01T03:40:21;25.50;57.60
64062;DHT22;50308;47.438;-1.528;2022-08-01T03:42:51;25.50;57.60
64062;DHT22;50308;47.438;-1.528;2022-08-01T03:45:30;25.50;57.60
64062;DHT22;50308;47.438;-1.528;2022-08-01T03:48:05;25.50;57.60
64062;DHT22;50308;47.438;-1.528;2022-08-01T03:50:33;25.50;57.60
64062;DHT22;50308;47.438;-1.528;2022-08-01T03:53:02;25.50;57.70
64062;DHT22;50308;47.438;-1.528;2022-08-01T03:55:30;25.50;57.60
64062;DHT22;50308;47.438;-1.528;2022-08-01T03:57:56;25.40;57.60
64062;DHT22;50308;47.438;-1.528;2022-08-01T04:00:24;25.50;58.70
64062;DHT22;50308;47.438;-1.528;2022-08-01T04:02:51;25.50;57.60
64062;DHT22;50308;47.438;-1.528;2022-08-01T04:05:17;25.50;57.60
64062;DHT22;50308;47.438;-1.528;2022-08-01T04:07:48;25.50;57.70
64062;DHT22;50308;47.438;-1.528;2022-08-01T04:10:16;25.50;57.60
64062;DHT22;50308;47.438;-1.528;2022-08-01T04:12:42;25.50;57.70
64062;DHT22;50308;47.438;-1.528;2022-08-01T04:15:08;25.50;57.70
64062;DHT22;50308;47.438;-1.528;2022-08-01T04:17:34;25.50;57.70
64062;DHT22;50308;47.438;-1.528;2022-08-01T04:19:59;25.50;57.70
64062;DHT22;50308;47.438;-1.528;2022-08-01T04:22:25;25.50;57.70
64062;DHT22;50308;47.438;-1.528;2022-08-01T04:24:55;25.50;57.70
64062;DHT22;50308;47.438;-1.528;2022-08-01T04:27:27;25.50;57.60
64062;DHT22;50308;47.438;-1.528;2022-08-01T04:29:58;25.50;57.70
64062;DHT22;50308;47.438;-1.528;2022-08-01T04:32:26;25.50;57.70
64062;DHT22;50308;47.438;-1.528;2022-08-01T04:34:54;25.50;57.70
64062;DHT22;50308;47.438;-1.528;2022-08-01T04:37:23;25.50;57.70
64062;DHT22;50308;47.438;-1.528;2022-08-01T04:39:51;25.50;57.70
64062;DHT22;50308;47.438;-1.528;2022-08-01T04:42:18;25.50;57.70
64062;DHT22;50308;47.438;-1.528;2022-08-01T04:44:44;25.50;57.70
64062;DHT22;50308;47.438;-1.528;2022-08-01T04:47:10;25.50;57.70
64062;DHT22;50308;47.438;-1.528;2022-08-01T04:49:37;25.50;57.70
64062;DHT22;50308;47.438;-1.528;2022-08-01T04:52:03;25.50;57.70
64062;DHT22;50308;47.438;-1.528;2022-08-01T04:54:33;25.50;58.00
64062;DHT22;50308;47.438;-1.528;2022-08-01T04:57:05;25.50;57.70
64062;DHT22;50308;47.438;-1.528;2022-08-01T04:59:33;25.50;57.70
64062;DHT22;50308;47.438;-1.528;2022-08-01T05:02:17;25.50;57.70
64062;DHT22;50308;47.438;-1.528;2022-08-01T05:04:44;25.40;57.60
64062;DHT22;50308;47.438;-1.528;2022-08-01T05:07:11;25.50;57.70
64062;DHT22;50308;47.438;-1.528;2022-08-01T05:09:38;25.50;57.70
64062;DHT22;50308;47.438;-1.528;2022-08-01T05:12:05;25.50;57.70
64062;DHT22;50308;47.438;-1.528;2022-08-01T05:14:32;25.50;57.80
64062;DHT22;50308;47.438;-1.528;2022-08-01T05:17:02;25.50;57.80
64062;DHT22;50308;47.438;-1.528;2022-08-01T05:19:32;25.50;57.70
64062;DHT22;50308;47.438;-1.528;2022-08-01T05:21:59;25.50;57.80
64062;DHT22;50308;47.438;-1.528;2022-08-01T05:24:27;25.50;57.90
64062;DHT22;50308;47.438;-1.528;2022-08-01T05:26:57;25.50;57.80
64062;DHT22;50308;47.438;-1.528;2022-08-01T05:29:23;25.50;57.80
64062;DHT22;50308;47.438;-1.528;2022-08-01T05:31:49;25.50;57.90
64062;DHT22;50308;47.438;-1.528;2022-08-01T05:34:15;25.50;57.80
64062;DHT22;50308;47.438;-1.528;2022-08-01T05:36:42;25.50;57.70
64062;DHT22;50308;47.438;-1.528;2022-08-01T05:39:07;25.50;57.70
64062;DHT22;50308;47.438;-1.528;2022-08-01T05:41:33;25.50;57.70
64062;DHT22;50308;47.438;-1.528;2022-08-01T05:43:59;25.50;57.70
64062;DHT22;50308;47.438;-1.528;2022-08-01T05:46:25;25.50;57.80
64062;DHT22;50308;47.438;-1.528;2022-08-01T05:48:50;25.50;57.80
64062;DHT22;50308;47.438;-1.528;2022-08-01T05:51:16;25.50;57.80
64062;DHT22;50308;47.438;-1.528;2022-08-01T05:53:42;25.40;57.70
64062;DHT22;50308;47.438;-1.528;2022-08-01T05:56:07;25.50;57.70
64062;DHT22;50308;47.438;-1.528;2022-08-01T05:58:33;25.50;57.80
64062;DHT22;50308;47.438;-1.528;2022-08-01T06:00:59;25.50;57.70
64062;DHT22;50308;47.438;-1.528;2022-08-01T06:03:26;25.40;57.50
64062;DHT22;50308;47.438;-1.528;2022-08-01T06:05:56;25.50;57.60
64062;DHT22;50308;47.438;-1.528;2022-08-01T06:08:22;25.50;57.60
64062;DHT22;50308;47.438;-1.528;2022-08-01T06:10:48;25.50;57.60
64062;DHT22;50308;47.438;-1.528;2022-08-01T06:13:13;25.50;57.60
64062;DHT22;50308;47.438;-1.528;2022-08-01T06:15:39;25.40;57.60
64062;DHT22;50308;47.438;-1.528;2022-08-01T06:18:05;25.40;57.60
64062;DHT22;50308;47.438;-1.528;2022-08-01T06:20:31;25.50;57.60
64062;DHT22;50308;47.438;-1.528;2022-08-01T06:22:57;25.50;57.70
64062;DHT22;50308;47.438;-1.528;2022-08-01T06:25:22;25.40;57.50
64062;DHT22;50308;47.438;-1.528;2022-08-01T06:27:48;25.40;57.50
64062;DHT22;50308;47.438;-1.528;2022-08-01T06:30:15;25.40;57.60
64062;DHT22;50308;47.438;-1.528;2022-08-01T06:32:41;25.50;57.70
64062;DHT22;50308;47.438;-1.528;2022-08-01T06:35:07;25.50;57.90
64062;DHT22;50308;47.438;-1.528;2022-08-01T06:37:33;25.40;57.90
64062;DHT22;50308;47.438;-1.528;2022-08-01T06:40:07;25.40;58.00
64062;DHT22;50308;47.438;-1.528;2022-08-01T06:42:34;25.40;58.00
64062;DHT22;50308;47.438;-1.528;2022-08-01T06:45:09;25.40;58.10
64062;DHT22;50308;47.438;-1.528;2022-08-01T06:47:36;25.40;58.20
64062;DHT22;50308;47.438;-1.528;2022-08-01T06:50:06;25.40;58.00
64062;DHT22;50308;47.438;-1.528;2022-08-01T06:52:32;25.40;58.00
64062;DHT22;50308;47.438;-1.528;2022-08-01T06:54:58;25.40;58.10
64062;DHT22;50308;47.438;-1.528;2022-08-01T06:57:23;25.40;58.00
64062;DHT22;50308;47.438;-1.528;2022-08-01T06:59:49;25.40;58.00
64062;DHT22;50308;47.438;-1.528;2022-08-01T07:02:15;25.40;57.90
64062;DHT22;50308;47.438;-1.528;2022-08-01T07:04:40;25.40;57.90
64062;DHT22;50308;47.438;-1.528;2022-08-01T07:07:06;25.40;57.90
64062;DHT22;50308;47.438;-1.528;2022-08-01T07:09:32;25.40;57.80
64062;DHT22;50308;47.438;-1.528;2022-08-01T07:11:58;25.40;57.60
64062;DHT22;50308;47.438;-1.528;2022-08-01T07:14:24;25.40;57.50
64062;DHT22;50308;47.438;-1.528;2022-08-01T07:16:50;25.40;57.60
64062;DHT22;50308;47.438;-1.528;2022-08-01T07:19:16;25.40;57.60
64062;DHT22;50308;47.438;-1.528;2022-08-01T07:21:42;25.40;57.50
64062;DHT22;50308;47.438;-1.528;2022-08-01T07:24:11;25.40;57.60
64062;DHT22;50308;47.438;-1.528;2022-08-01T07:26:39;25.40;57.50
64062;DHT22;50308;47.438;-1.528;2022-08-01T07:29:05;25.40;57.60
64062;DHT22;50308;47.438;-1.528;2022-08-01T07:31:30;25.40;57.50
64062;DHT22;50308;47.438;-1.528;2022-08-01T07:33:56;25.40;57.30
64062;DHT22;50308;47.438;-1.528;2022-08-01T07:36:22;25.40;57.40
64062;DHT22;50308;47.438;-1.528;2022-08-01T07:38:47;25.40;57.40
64062;DHT22;50308;47.438;-1.528;2022-08-01T07:41:14;25.40;57.30
64062;DHT22;50308;47.438;-1.528;2022-08-01T07:43:40;25.40;57.30
64062;DHT22;50308;47.438;-1.528;2022-08-01T07:46:05;25.40;57.20
64062;DHT22;50308;47.438;-1.528;2022-08-01T07:48:31;25.40;57.10
64062;DHT22;50308;47.438;-1.528;2022-08-01T07:50:57;25.50;57.10
64062;DHT22;50308;47.438;-1.528;2022-08-01T07:53:23;25.50;57.10
64062;DHT22;50308;47.438;-1.528;2022-08-01T07:55:51;25.50;57.10
64062;DHT22;50308;47.438;-1.528;2022-08-01T07:58:17;25.50;57.00
64062;DHT22;50308;47.438;-1.528;2022-08-01T08:00:43;25.50;56.80
64062;DHT22;50308;47.438;-1.528;2022-08-01T08:03:08;25.50;56.70
64062;DHT22;50308;47.438;-1.528;2022-08-01T08:05:34;25.50;56.70
64062;DHT22;50308;47.438;-1.528;2022-08-01T08:08:08;25.50;56.60
64062;DHT22;50308;47.438;-1.528;2022-08-01T08:10:34;25.50;56.70
64062;DHT22;50308;47.438;-1.528;2022-08-01T08:13:00;25.50;56.60
64062;DHT22;50308;47.438;-1.528;2022-08-01T08:15:27;25.50;57.70
64062;DHT22;50308;47.438;-1.528;2022-08-01T08:17:53;25.50;56.50
64062;DHT22;50308;47.438;-1.528;2022-08-01T08:20:18;25.50;56.30
64062;DHT22;50308;47.438;-1.528;2022-08-01T08:22:46;25.50;56.30
64062;DHT22;50308;47.438;-1.528;2022-08-01T08:25:12;25.50;56.30
64062;DHT22;50308;47.438;-1.528;2022-08-01T08:27:38;25.50;56.30
64062;DHT22;50308;47.438;-1.528;2022-08-01T08:30:05;25.50;56.10
64062;DHT22;50308;47.438;-1.528;2022-08-01T08:32:33;25.60;56.10
64062;DHT22;50308;47.438;-1.528;2022-08-01T08:34:59;25.60;56.10
64062;DHT22;50308;47.438;-1.528;2022-08-01T08:37:25;25.60;56.00
64062;DHT22;50308;47.438;-1.528;2022-08-01T08:39:51;25.60;56.00
64062;DHT22;50308;47.438;-1.528;2022-08-01T08:42:18;25.60;55.80
64062;DHT22;50308;47.438;-1.528;2022-08-01T08:44:44;25.60;55.90
64062;DHT22;50308;47.438;-1.528;2022-08-01T08:47:12;25.60;55.70
64062;DHT22;50308;47.438;-1.528;2022-08-01T08:49:38;25.60;55.80
64062;DHT22;50308;47.438;-1.528;2022-08-01T08:52:04;25.60;55.80
64062;DHT22;50308;47.438;-1.528;2022-08-01T08:54:31;25.60;55.70
64062;DHT22;50308;47.438;-1.528;2022-08-01T08:57:00;25.60;55.70
64062;DHT22;50308;47.438;-1.528;2022-08-01T08:59:26;25.60;55.70
64062;DHT22;50308;47.438;-1.528;2022-08-01T09:01:53;25.70;55.40
64062;DHT22;50308;47.438;-1.528;2022-08-01T09:04:21;25.70;55.60
64062;DHT22;50308;47.438;-1.528;2022-08-01T09:06:48;25.70;55.50
64062;DHT22;50308;47.438;-1.528;2022-08-01T09:09:14;25.60;55.50
64062;DHT22;50308;47.438;-1.528;2022-08-01T09:11:39;25.70;55.40
64062;DHT22;50308;47.438;-1.528;2022-08-01T09:14:13;25.60;55.40
64062;DHT22;50308;47.438;-1.528;2022-08-01T09:16:44;25.70;55.30
64062;DHT22;50308;47.438;-1.528;2022-08-01T09:19:19;25.70;55.40
64062;DHT22;50308;47.438;-1.528;2022-08-01T09:22:02;25.70;55.40
64062;DHT22;50308;47.438;-1.528;2022-08-01T09:24:30;25.60;55.30
64062;DHT22;50308;47.438;-1.528;2022-08-01T09:26:58;25.70;55.40
64062;DHT22;50308;47.438;-1.528;2022-08-01T09:29:29;25.60;55.30
64062;DHT22;50308;47.438;-1.528;2022-08-01T09:31:55;25.70;55.40
64062;DHT22;50308;47.438;-1.528;2022-08-01T09:34:29;25.70;55.40
64062;DHT22;50308;47.438;-1.528;2022-08-01T09:37:01;25.70;55.40
64062;DHT22;50308;47.438;-1.528;2022-08-01T09:39:37;25.70;55.40
64062;DHT22;50308;47.438;-1.528;2022-08-01T09:42:24;25.70;55.50
64062;DHT22;50308;47.438;-1.528;2022-08-01T09:44:51;25.70;55.40
64062;DHT22;50308;47.438;-1.528;2022-08-01T09:47:18;25.70;55.40
64062;DHT22;50308;47.438;-1.528;2022-08-01T09:49:56;25.70;55.30
64062;DHT22;50308;47.438;-1.528;2022-08-01T09:52:24;25.70;55.20
64062;DHT22;50308;47.438;-1.528;2022-08-01T09:55:02;25.70;55.20
64062;DHT22;50308;47.438;-1.528;2022-08-01T09:57:29;25.70;55.10
64062;DHT22;50308;47.438;-1.528;2022-08-01T09:59:57;25.70;55.20
64062;DHT22;50308;47.438;-1.528;2022-08-01T10:02:37;25.80;55.10
64062;DHT22;50308;47.438;-1.528;2022-08-01T10:05:05;25.80;55.10
64062;DHT22;50308;47.438;-1.528;2022-08-01T10:07:31;25.80;55.10
64062;DHT22;50308;47.438;-1.528;2022-08-01T10:10:12;25.80;54.90
64062;DHT22;50308;47.438;-1.528;2022-08-01T10:12:39;25.80;55.00
64062;DHT22;50308;47.438;-1.528;2022-08-01T10:15:06;25.80;55.00
64062;DHT22;50308;47.438;-1.528;2022-08-01T10:17:34;25.80;55.00
64062;DHT22;50308;47.438;-1.528;2022-08-01T10:20:02;25.80;55.00
64062;DHT22;50308;47.438;-1.528;2022-08-01T10:22:30;25.80;54.80
64062;DHT22;50308;47.438;-1.528;2022-08-01T10:24:57;25.80;54.80
64062;DHT22;50308;47.438;-1.528;2022-08-01T10:27:29;25.80;54.90
64062;DHT22;50308;47.438;-1.528;2022-08-01T10:29:59;25.80;54.70
64062;DHT22;50308;47.438;-1.528;2022-08-01T10:32:34;25.80;54.70
64062;DHT22;50308;47.438;-1.528;2022-08-01T10:35:01;25.90;54.80
64062;DHT22;50308;47.438;-1.528;2022-08-01T10:37:27;25.80;54.60
64062;DHT22;50308;47.438;-1.528;2022-08-01T10:39:53;25.90;54.70
64062;DHT22;50308;47.438;-1.528;2022-08-01T10:42:19;25.90;54.80
64062;DHT22;50308;47.438;-1.528;2022-08-01T10:44:47;25.80;54.80
64062;DHT22;50308;47.438;-1.528;2022-08-01T10:47:18;25.90;54.70
64062;DHT22;50308;47.438;-1.528;2022-08-01T10:50:04;25.90;54.60
64062;DHT22;50308;47.438;-1.528;2022-08-01T10:52:32;25.90;54.70
64062;DHT22;50308;47.438;-1.528;2022-08-01T10:55:08;25.90;54.70
64062;DHT22;50308;47.438;-1.528;2022-08-01T11:00:10;26.00;54.60
64062;DHT22;50308;47.438;-1.528;2022-08-01T11:03:00;26.00;54.50
64062;DHT22;50308;47.438;-1.528;2022-08-01T11:05:28;26.00;54.50
64062;DHT22;50308;47.438;-1.528;2022-08-01T11:07:55;26.00;54.50
64062;DHT22;50308;47.438;-1.528;2022-08-01T11:10:43;26.00;54.40
64062;DHT22;50308;47.438;-1.528;2022-08-01T11:13:08;26.00;54.30
64062;DHT22;50308;47.438;-1.528;2022-08-01T11:15:40;26.00;54.20
64062;DHT22;50308;47.438;-1.528;2022-08-01T11:21:01;26.10;54.10
64062;DHT22;50308;47.438;-1.528;2022-08-01T11:23:30;26.00;54.10
64062;DHT22;50308;47.438;-1.528;2022-08-01T11:28:27;26.00;54.20
64062;DHT22;50308;47.438;-1.528;2022-08-01T11:41:34;26.10;54.00
64062;DHT22;50308;47.438;-1.528;2022-08-01T11:46:55;26.00;53.80
64062;DHT22;50308;47.438;-1.528;2022-08-01T11:52:08;26.10;53.70
64062;DHT22;50308;47.438;-1.528;2022-08-01T11:54:42;26.10;53.50
64062;DHT22;50308;47.438;-1.528;2022-08-01T11:57:19;26.10;53.50
64062;DHT22;50308;47.438;-1.528;2022-08-01T11:59:47;26.10;53.30
64062;DHT22;50308;47.438;-1.528;2022-08-01T12:02:34;26.10;53.30
64062;DHT22;50308;47.438;-1.528;2022-08-01T12:05:03;26.10;53.30
64062;DHT22;50308;47.438;-1.528;2022-08-01T12:07:31;26.10;53.30
64062;DHT22;50308;47.438;-1.528;2022-08-01T12:10:06;26.10;53.20
64062;DHT22;50308;47.438;-1.528;2022-08-01T12:12:33;26.10;53.20
64062;DHT22;50308;47.438;-1.528;2022-08-01T12:15:05;26.10;53.20
64062;DHT22;50308;47.438;-1.528;2022-08-01T12:20:00;26.20;53.20
64062;DHT22;50308;47.438;-1.528;2022-08-01T12:22:26;26.20;53.20
64062;DHT22;50308;47.438;-1.528;2022-08-01T12:24:52;26.20;53.10
64062;DHT22;50308;47.438;-1.528;2022-08-01T12:27:29;26.20;54.10
64062;DHT22;50308;47.438;-1.528;2022-08-01T12:29:56;26.20;53.00
64062;DHT22;50308;47.438;-1.528;2022-08-01T12:32:31;26.20;53.00
64062;DHT22;50308;47.438;-1.528;2022-08-01T12:35:02;26.20;52.90
64062;DHT22;50308;47.438;-1.528;2022-08-01T12:37:28;26.20;52.90
64062;DHT22;50308;47.438;-1.528;2022-08-01T12:39:54;26.20;52.80
64062;DHT22;50308;47.438;-1.528;2022-08-01T12:42:21;26.20;52.80
64062;DHT22;50308;47.438;-1.528;2022-08-01T12:44:49;26.20;52.80
64062;DHT22;50308;47.438;-1.528;2022-08-01T12:47:17;26.30;52.80
64062;DHT22;50308;47.438;-1.528;2022-08-01T12:49:45;26.30;52.60
64062;DHT22;50308;47.438;-1.528;2022-08-01T12:52:11;26.30;52.60
64062;DHT22;50308;47.438;-1.528;2022-08-01T12:55:09;26.30;52.60
64062;DHT22;50308;47.438;-1.528;2022-08-01T12:57:37;26.30;52.60
64062;DHT22;50308;47.438;-1.528;2022-08-01T13:00:30;26.30;52.60
64062;DHT22;50308;47.438;-1.528;2022-08-01T13:03:20;26.30;52.50
64062;DHT22;50308;47.438;-1.528;2022-08-01T13:05:52;26.40;52.40
64062;DHT22;50308;47.438;-1.528;2022-08-01T13:10:46;26.40;52.40
64062;DHT22;50308;47.438;-1.528;2022-08-01T13:13:14;26.40;52.40
64062;DHT22;50308;47.438;-1.528;2022-08-01T13:15:41;26.40;52.40
64062;DHT22;50308;47.438;-1.528;2022-08-01T13:18:31;26.50;52.40
64062;DHT22;50308;47.438;-1.528;2022-08-01T13:21:15;26.40;52.50
64062;DHT22;50308;47.438;-1.528;2022-08-01T13:23:59;26.50;52.40
64062;DHT22;50308;47.438;-1.528;2022-08-01T13:29:09;26.50;52.10
64062;DHT22;50308;47.438;-1.528;2022-08-01T13:31:37;26.50;52.00
64062;DHT22;50308;47.438;-1.528;2022-08-01T13:34:03;26.50;51.90
64062;DHT22;50308;47.438;-1.528;2022-08-01T13:36:29;26.50;51.80
64062;DHT22;50308;47.438;-1.528;2022-08-01T13:38:57;26.50;51.60
64062;DHT22;50308;47.438;-1.528;2022-08-01T13:41:41;26.50;51.60
64062;DHT22;50308;47.438;-1.528;2022-08-01T13:44:07;26.50;51.30
64062;DHT22;50308;47.438;-1.528;2022-08-01T13:46:34;26.60;51.30
64062;DHT22;50308;47.438;-1.528;2022-08-01T13:49:01;26.60;51.40
64062;DHT22;50308;47.438;-1.528;2022-08-01T13:51:27;26.60;51.40
64062;DHT22;50308;47.438;-1.528;2022-08-01T13:53:52;26.60;51.60
64062;DHT22;50308;47.438;-1.528;2022-08-01T13:56:18;26.60;52.50
64062;DHT22;50308;47.438;-1.528;2022-08-01T13:58:45;26.70;51.40
64062;DHT22;50308;47.438;-1.528;2022-08-01T14:01:11;26.60;51.20
64062;DHT22;50308;47.438;-1.528;2022-08-01T14:03:37;26.70;51.10
64062;DHT22;50308;47.438;-1.528;2022-08-01T14:06:02;26.60;51.00
64062;DHT22;50308;47.438;-1.528;2022-08-01T14:08:28;26.60;50.80
64062;DHT22;50308;47.438;-1.528;2022-08-01T14:10:54;26.70;51.00
64062;DHT22;50308;47.438;-1.528;2022-08-01T14:13:23;26.70;50.80
64062;DHT22;50308;47.438;-1.528;2022-08-01T14:15:48;26.70;50.80
64062;DHT22;50308;47.438;-1.528;2022-08-01T14:18:15;26.70;50.80
64062;DHT22;50308;47.438;-1.528;2022-08-01T14:20:41;26.80;50.70
64062;DHT22;50308;47.438;-1.528;2022-08-01T14:23:08;26.80;50.70
64062;DHT22;50308;47.438;-1.528;2022-08-01T14:25:35;26.80;50.60
64062;DHT22;50308;47.438;-1.528;2022-08-01T14:28:01;26.80;50.70
64062;DHT22;50308;47.438;-1.528;2022-08-01T14:30:27;26.90;50.70
64062;DHT22;50308;47.438;-1.528;2022-08-01T14:32:52;26.90;50.50
64062;DHT22;50308;47.438;-1.528;2022-08-01T14:35:18;26.90;50.60
64062;DHT22;50308;47.438;-1.528;2022-08-01T14:37:44;26.90;50.60
64062;DHT22;50308;47.438;-1.528;2022-08-01T14:40:10;26.90;50.70
64062;DHT22;50308;47.438;-1.528;2022-08-01T14:42:37;26.80;50.90
64062;DHT22;50308;47.438;-1.528;2022-08-01T14:45:05;26.90;50.80
64062;DHT22;50308;47.438;-1.528;2022-08-01T14:47:38;26.90;50.60
64062;DHT22;50308;47.438;-1.528;2022-08-01T14:50:06;27.00;50.50
64062;DHT22;50308;47.438;-1.528;2022-08-01T14:52:33;27.00;50.40
64062;DHT22;50308;47.438;-1.528;2022-08-01T14:54:59;27.00;50.30
64062;DHT22;50308;47.438;-1.528;2022-08-01T14:57:25;27.00;50.20
64062;DHT22;50308;47.438;-1.528;2022-08-01T14:59:51;27.00;50.20
64062;DHT22;50308;47.438;-1.528;2022-08-01T15:02:16;27.00;50.20
64062;DHT22;50308;47.438;-1.528;2022-08-01T15:04:45;27.00;50.20
64062;DHT22;50308;47.438;-1.528;2022-08-01T15:07:12;27.00;50.20
64062;DHT22;50308;47.438;-1.528;2022-08-01T15:09:38;27.10;50.20
64062;DHT22;50308;47.438;-1.528;2022-08-01T15:12:04;27.10;50.20
64062;DHT22;50308;47.438;-1.528;2022-08-01T15:14:30;27.10;50.20
64062;DHT22;50308;47.438;-1.528;2022-08-01T15:19:52;27.20;50.00
64062;DHT22;50308;47.438;-1.528;2022-08-01T15:22:19;27.20;49.80
64062;DHT22;50308;47.438;-1.528;2022-08-01T15:24:44;27.20;49.70
64062;DHT22;50308;47.438;-1.528;2022-08-01T15:27:10;27.20;49.60
64062;DHT22;50308;47.438;-1.528;2022-08-01T15:29:37;27.20;49.50
64062;DHT22;50308;47.438;-1.528;2022-08-01T15:32:05;27.30;49.50
64062;DHT22;50308;47.438;-1.528;2022-08-01T15:34:32;27.30;49.40
64062;DHT22;50308;47.438;-1.528;2022-08-01T15:36:58;27.30;49.70
64062;DHT22;50308;47.438;-1.528;2022-08-01T15:39:24;27.20;49.60
64062;DHT22;50308;47.438;-1.528;2022-08-01T15:41:50;27.20;49.60
64062;DHT22;50308;47.438;-1.528;2022-08-01T15:44:15;27.30;49.60
64062;DHT22;50308;47.438;-1.528;2022-08-01T15:46:48;27.30;49.60
64062;DHT22;50308;47.438;-1.528;2022-08-01T15:49:15;27.30;49.90
64062;DHT22;50308;47.438;-1.528;2022-08-01T15:51:41;27.30;49.70
64062;DHT22;50308;47.438;-1.528;2022-08-01T15:54:07;27.30;49.70
64062;DHT22;50308;47.438;-1.528;2022-08-01T15:56:33;27.30;49.70
64062;DHT22;50308;47.438;-1.528;2022-08-01T15:58:59;27.30;49.60
64062;DHT22;50308;47.438;-1.528;2022-08-01T16:01:25;27.30;50.10
64062;DHT22;50308;47.438;-1.528;2022-08-01T16:03:52;27.30;49.70
64062;DHT22;50308;47.438;-1.528;2022-08-01T16:06:18;27.40;49.60
64062;DHT22;50308;47.438;-1.528;2022-08-01T16:08:44;27.40;49.50